Athens, WV

10:49 PM EDT on April 25, 2015 (GMT -0400)
Oxley Hollow Road | | Change Station
CLOSE
Current Station
Personal Weather Station
Location: Princeton, WV
Elevation: 2411 ft
Nearby Weather Stations

Elev 2411 ft 37.44 °N, 81.03 °W | Updated 26 seconds ago

Rain
Rain
42.9 °F
Feels Like 43 °F
N
0.0
Wind Variable Wind from WNW
Gusts 2.0 mph

Today
High -- | Low -- °F
--% Chance of Precip.
Yesterday
High -- | Low -- °F
Precip. -- in
6:36 AM 8:08 PM
Waxing Crescent, 51% visible
Pressure 29.63 in
Visibility 3.0 miles
Clouds Mostly Cloudy 200 ft
Overcast 2300 ft
Windchill 43 °F
Dew Point 42 °F
Humidity 96%
Rainfall -999.00 in
Snow Depth Not available.
UV 0 out of 12
Pollen 7.90 out of 12
Air Quality Not available.
Flu Activity Sporadic
SPECI KBLF 260220Z AUTO 09006KT 3SM BR BKN002 OVC023 08/06 A2963 RMK AO2 LTG DSNT N AND NE T00780056

More Conditions Fewer Conditions

Pressure 29.63 in
Visibility 3.0 miles
Clouds Mostly Cloudy 200 ft
Overcast 2300 ft
Windchill 43 °F
Dew Point 42 °F
Humidity 96%
Rainfall -999.00 in
Snow Depth Not available.
UV 0 out of 12
Pollen 7.90 out of 12
Air Quality Not available.
Flu Activity Sporadic
SPECI KBLF 260220Z AUTO 09006KT 3SM BR BKN002 OVC023 08/06 A2963 RMK AO2 LTG DSNT N AND NE T00780056

More Conditions Fewer Conditions

10-Day Weather Forecast

Almanac

Astronomy

Apr. 25, 2015 Rise Set
Actual Time
Civil Twilight
Nautical Twilight
Astronomical Twilight
Moon
Length of Visible Light
Length of Day
Tomorrow will be .
, % of the Moon is Illuminated

Today's Extremes

State Highs State Lows

Community

WunderPhotos

Upload Photos

1,816,909 photos uploaded!

WunderBlogs® & News

Nearby

Air Quality

  Air Quality AQ Index Pollutant
Not available.

Snow Depth

Station Depth Elevation

Earthquake Activity

City Distance Mag. Time & Date
Minimum magnitude displayed is 2.5.

Coastal Water Temperatures

Place Temperature

Stations

Nearby Weather Stations

Station Location Temp. Windchill Dew Point Humidity Wind Precip. Elev Updated Type